Air Quality Table

TIMESTAMP NO2 SO2 O3 PM10 PM2.5 CO TEMP HUM AIRPRES WS WD NO BENZENE
2022-01-24 17:00 30.76 µg/m3 0.4 µg/m3 57.56 µg/m3 30.89 µg/m3 7.7 µg/m3 0.29 mg/m3 13.06 °C 57.32 % 1,024.19 mbar 2.28 m/s 284.61 Deg 12.16 µg/m3 1.67 µg/m3
2022-01-24 09:00 51.04 µg/m3 0.85 µg/m3 37.69 µg/m3 28.69 µg/m3 8.69 µg/m3 0.43 mg/m3 11.38 °C 55.34 % 1,024.99 mbar 1.38 m/s 210.12 Deg 35.2 µg/m3 2.98 µg/m3
2022-01-24 01:00 41.53 µg/m3 0.43 µg/m3 41.65 µg/m3 23.62 µg/m3 11.69 µg/m3 0.42 mg/m3 11.88 °C 59.26 % 1,025.80 mbar 1.65 m/s 199.69 Deg 6.35 µg/m3 3.21 µg/m3
2022-01-23 17:00 19.46 µg/m3 0.4 µg/m3 68.6 µg/m3 19.64 µg/m3 6.04 µg/m3 0.3 mg/m3 13.43 °C 47.64 % 1,026.84 mbar 1.83 m/s 219.83 Deg 9.15 µg/m3 2.33 µg/m3
2022-01-23 09:00 10.52 µg/m3 0.26 µg/m3 70.04 µg/m3 9.44 µg/m3 4.41 µg/m3 0.21 mg/m3 11.43 °C 64.05 % 1,025.66 mbar 2.53 m/s 43.93 Deg 5.51 µg/m3 1.52 µg/m3
2022-01-23 01:00 51.87 µg/m3 0.89 µg/m3 23.44 µg/m3 38.7 µg/m3 25.62 µg/m3 0.84 mg/m3 11.33 °C 80.87 % 1,023.99 mbar 0.99 m/s 176.04 Deg 39.3 µg/m3 6.31 µg/m3
2022-01-22 17:00 28.83 µg/m3 0.31 µg/m3 58.58 µg/m3 15.35 µg/m3 5.69 µg/m3 0.31 mg/m3 13.23 °C 65.83 % 1,022.43 mbar 1.7 m/s 218.93 Deg 11.29 µg/m3 1.57 µg/m3
2022-01-22 09:00 24.49 µg/m3 0.19 µg/m3 54.72 µg/m3 16.34 µg/m3 7.58 µg/m3 0.23 mg/m3 11.59 °C 72.06 % 1,021.16 mbar 1.71 m/s 255.69 Deg 4.18 µg/m3 0.96 µg/m3
2022-01-22 01:00 44.78 µg/m3 0.29 µg/m3 39.6 µg/m3 17.45 µg/m3 9.48 µg/m3 0.37 mg/m3 12.39 °C 70.23 % 1,021.42 mbar 1.35 m/s 246.83 Deg 6.38 µg/m3 2.1 µg/m3
2022-01-21 17:00 30.71 µg/m3 0.32 µg/m3 60.63 µg/m3 36.87 µg/m3 10.09 µg/m3 0.28 mg/m3 14.54 °C 57.2 % 1,021.15 mbar 3 m/s 246.02 Deg 7.53 µg/m3 1.99 µg/m3
2022-01-21 09:00 44.29 µg/m3 1.3 µg/m3 23.17 µg/m3 40.42 µg/m3 23.26 µg/m3 0.84 mg/m3 10.95 °C 72.26 % 1,021.51 mbar 0.54 m/s 238.81 Deg 62.23 µg/m3 6.54 µg/m3
2022-01-21 01:00 59.64 µg/m3 0.74 µg/m3 17.33 µg/m3 42.76 µg/m3 23.25 µg/m3 0.64 mg/m3 12.45 °C 69.33 % 1,023.29 mbar 0.79 m/s 234.44 Deg 22.93 µg/m3 4.47 µg/m3
2022-01-20 17:00 35.77 µg/m3 1.54 µg/m3 51.64 µg/m3 38.31 µg/m3 12.51 µg/m3 0.34 mg/m3 14.61 °C 63.83 % 1,024.91 mbar 1.64 m/s 243.62 Deg 19.9 µg/m3 2.35 µg/m3
2022-01-20 09:00 42.95 µg/m3 1.67 µg/m3 17.63 µg/m3 28.6 µg/m3 18.37 µg/m3 0.73 mg/m3 11.4 °C 81.82 % 1,026.95 mbar 0.73 m/s 236.28 Deg 66.55 µg/m3 5.51 µg/m3
2022-01-20 01:00 50.73 µg/m3 1.09 µg/m3 23.83 µg/m3 20.7 µg/m3 15.1 µg/m3 0.49 mg/m3 12.53 °C 79.79 % 1,029.05 mbar 0.81 m/s 191.74 Deg 20.97 µg/m3 3.23 µg/m3
2022-01-19 17:00 43.22 µg/m3 1.46 µg/m3 48.56 µg/m3 34.2 µg/m3 12.26 µg/m3 0.43 mg/m3 14.85 °C 58.96 % 1,030.04 mbar 1.75 m/s 117.17 Deg 42.43 µg/m3 2.61 µg/m3
2022-01-19 09:00 43.61 µg/m3 1.78 µg/m3 21.27 µg/m3 33.5 µg/m3 18.58 µg/m3 0.66 mg/m3 12.06 °C 73.22 % 1,030.10 mbar 0.57 m/s 223.03 Deg 58.54 µg/m3 5.77 µg/m3
2022-01-19 01:00 58.1 µg/m3 1.37 µg/m3 14.99 µg/m3 43.49 µg/m3 24.64 µg/m3 0.69 mg/m3 12.05 °C 70.72 % 1,030.43 mbar 0.97 m/s 233.53 Deg 32.9 µg/m3 5.45 µg/m3
2022-01-18 17:00 29.55 µg/m3 0.89 µg/m3 60.82 µg/m3 36.56 µg/m3 11.44 µg/m3 0.3 mg/m3 14.88 °C 58.64 % 1,028.93 mbar 1.78 m/s 289.41 Deg 13.61 µg/m3 1.69 µg/m3
2022-01-18 09:00 32.56 µg/m3 0.91 µg/m3 45.93 µg/m3 27.37 µg/m3 10.57 µg/m3 0.32 mg/m3 12.32 °C 72.66 % 1,026.68 mbar 1.37 m/s 257.05 Deg 15.69 µg/m3 1.71 µg/m3

It is to be noted that the data is provisional and subject to quality assurance procedures. For validated data kindly refer your request to contact.air@era.org.mt